sensor_id;sensor_type;location;lat;lon;timestamp;P1;durP1;ratioP1;P2;durP2;ratioP2
79708;SDS011;69203;48.964;9.118;2023-04-15T00:00:27;2.50;;;0.10;;
79708;SDS011;69203;48.964;9.118;2023-04-15T00:01:28;2.70;;;0.17;;
79708;SDS011;69203;48.964;9.118;2023-04-15T00:02:29;2.20;;;0.10;;
79708;SDS011;69203;48.964;9.118;2023-04-15T00:03:29;3.53;;;0.10;;
79708;SDS011;69203;48.964;9.118;2023-04-15T00:04:29;3.50;;;0.10;;
79708;SDS011;69203;48.964;9.118;2023-04-15T00:05:32;3.35;;;0.10;;
79708;SDS011;69203;48.964;9.118;2023-04-15T00:06:33;3.40;;;0.10;;
79708;SDS011;69203;48.964;9.118;2023-04-15T00:07:34;3.57;;;0.10;;
79708;SDS011;69203;48.964;9.118;2023-04-15T00:08:35;3.53;;;0.10;;
79708;SDS011;69203;48.964;9.118;2023-04-15T00:09:35;3.13;;;0.10;;
79708;SDS011;69203;48.964;9.118;2023-04-15T00:10:35;2.93;;;0.00;;
79708;SDS011;69203;48.964;9.118;2023-04-15T00:11:36;2.83;;;0.10;;
79708;SDS011;69203;48.964;9.118;2023-04-15T00:12:36;2.33;;;0.10;;
79708;SDS011;69203;48.964;9.118;2023-04-15T00:13:37;1.50;;;0.10;;
79708;SDS011;69203;48.964;9.118;2023-04-15T00:14:38;2.75;;;0.10;;
79708;SDS011;69203;48.964;9.118;2023-04-15T00:15:40;2.97;;;0.10;;
79708;SDS011;69203;48.964;9.118;2023-04-15T00:16:40;2.97;;;0.17;;
79708;SDS011;69203;48.964;9.118;2023-04-15T00:17:41;2.93;;;0.07;;
79708;SDS011;69203;48.964;9.118;2023-04-15T00:18:41;2.65;;;0.10;;
79708;SDS011;69203;48.964;9.118;2023-04-15T00:19:42;2.83;;;0.10;;
79708;SDS011;69203;48.964;9.118;2023-04-15T00:20:44;2.97;;;0.08;;
79708;SDS011;69203;48.964;9.118;2023-04-15T00:21:45;3.13;;;0.10;;
79708;SDS011;69203;48.964;9.118;2023-04-15T00:22:45;2.77;;;0.10;;
79708;SDS011;69203;48.964;9.118;2023-04-15T00:23:46;2.58;;;0.10;;
79708;SDS011;69203;48.964;9.118;2023-04-15T00:24:54;2.58;;;0.10;;
79708;SDS011;69203;48.964;9.118;2023-04-15T00:25:54;2.63;;;0.05;;
79708;SDS011;69203;48.964;9.118;2023-04-15T00:26:54;2.53;;;0.10;;
79708;SDS011;69203;48.964;9.118;2023-04-15T00:27:55;2.13;;;0.10;;
79708;SDS011;69203;48.964;9.118;2023-04-15T00:28:55;1.80;;;0.10;;
79708;SDS011;69203;48.964;9.118;2023-04-15T00:30:56;1.33;;;0.10;;
79708;SDS011;69203;48.964;9.118;2023-04-15T00:31:56;1.90;;;0.10;;
79708;SDS011;69203;48.964;9.118;2023-04-15T00:32:57;2.23;;;0.10;;
79708;SDS011;69203;48.964;9.118;2023-04-15T00:33:57;1.90;;;0.10;;
79708;SDS011;69203;48.964;9.118;2023-04-15T00:34:58;1.98;;;0.10;;
79708;SDS011;69203;48.964;9.118;2023-04-15T00:35:58;1.90;;;0.10;;
79708;SDS011;69203;48.964;9.118;2023-04-15T00:36:59;1.90;;;0.10;;
79708;SDS011;69203;48.964;9.118;2023-04-15T00:37:59;2.43;;;0.10;;
79708;SDS011;69203;48.964;9.118;2023-04-15T00:39:00;2.53;;;0.07;;
79708;SDS011;69203;48.964;9.118;2023-04-15T00:40:01;2.47;;;0.03;;
79708;SDS011;69203;48.964;9.118;2023-04-15T00:41:05;2.60;;;0.05;;
79708;SDS011;69203;48.964;9.118;2023-04-15T00:42:06;2.63;;;0.08;;
79708;SDS011;69203;48.964;9.118;2023-04-15T00:43:07;2.70;;;0.05;;
79708;SDS011;69203;48.964;9.118;2023-04-15T00:44:08;2.73;;;0.03;;
79708;SDS011;69203;48.964;9.118;2023-04-15T00:45:08;2.43;;;0.07;;
79708;SDS011;69203;48.964;9.118;2023-04-15T00:46:09;2.55;;;0.10;;
79708;SDS011;69203;48.964;9.118;2023-04-15T00:47:12;2.70;;;0.10;;
79708;SDS011;69203;48.964;9.118;2023-04-15T00:48:12;2.83;;;0.10;;
79708;SDS011;69203;48.964;9.118;2023-04-15T00:49:14;2.95;;;0.10;;
79708;SDS011;69203;48.964;9.118;2023-04-15T00:50:14;3.03;;;0.10;;
79708;SDS011;69203;48.964;9.118;2023-04-15T00:51:15;2.97;;;0.10;;
79708;SDS011;69203;48.964;9.118;2023-04-15T00:52:15;2.90;;;0.00;;
79708;SDS011;69203;48.964;9.118;2023-04-15T00:53:16;2.45;;;0.10;;
79708;SDS011;69203;48.964;9.118;2023-04-15T00:54:16;2.53;;;0.07;;
79708;SDS011;69203;48.964;9.118;2023-04-15T00:55:17;2.83;;;0.10;;
79708;SDS011;69203;48.964;9.118;2023-04-15T00:56:19;2.78;;;0.10;;
79708;SDS011;69203;48.964;9.118;2023-04-15T00:57:23;2.78;;;0.08;;
79708;SDS011;69203;48.964;9.118;2023-04-15T00:58:25;2.80;;;0.10;;
79708;SDS011;69203;48.964;9.118;2023-04-15T00:59:27;2.63;;;0.10;;
79708;SDS011;69203;48.964;9.118;2023-04-15T01:00:28;2.78;;;0.10;;
79708;SDS011;69203;48.964;9.118;2023-04-15T01:01:29;2.83;;;0.10;;
79708;SDS011;69203;48.964;9.118;2023-04-15T01:02:30;2.80;;;0.05;;
79708;SDS011;69203;48.964;9.118;2023-04-15T01:03:31;2.78;;;0.05;;
79708;SDS011;69203;48.964;9.118;2023-04-15T01:04:31;2.63;;;0.10;;
79708;SDS011;69203;48.964;9.118;2023-04-15T01:05:32;2.63;;;0.10;;
79708;SDS011;69203;48.964;9.118;2023-04-15T01:06:33;2.60;;;0.10;;
79708;SDS011;69203;48.964;9.118;2023-04-15T01:07:33;2.70;;;0.10;;
79708;SDS011;69203;48.964;9.118;2023-04-15T01:08:34;2.67;;;0.10;;
79708;SDS011;69203;48.964;9.118;2023-04-15T01:09:34;2.87;;;0.10;;
79708;SDS011;69203;48.964;9.118;2023-04-15T01:10:34;3.03;;;0.10;;
79708;SDS011;69203;48.964;9.118;2023-04-15T01:11:35;2.83;;;0.10;;
79708;SDS011;69203;48.964;9.118;2023-04-15T01:12:37;2.73;;;0.10;;
79708;SDS011;69203;48.964;9.118;2023-04-15T01:13:38;2.38;;;0.10;;
79708;SDS011;69203;48.964;9.118;2023-04-15T01:14:39;2.40;;;0.10;;
79708;SDS011;69203;48.964;9.118;2023-04-15T01:15:40;2.35;;;0.10;;
79708;SDS011;69203;48.964;9.118;2023-04-15T01:16:40;2.60;;;0.00;;
79708;SDS011;69203;48.964;9.118;2023-04-15T01:17:41;2.40;;;0.10;;
79708;SDS011;69203;48.964;9.118;2023-04-15T01:18:41;2.53;;;0.10;;
79708;SDS011;69203;48.964;9.118;2023-04-15T01:19:42;2.57;;;0.10;;
79708;SDS011;69203;48.964;9.118;2023-04-15T01:20:42;2.33;;;0.10;;
79708;SDS011;69203;48.964;9.118;2023-04-15T01:21:43;2.13;;;0.10;;
79708;SDS011;69203;48.964;9.118;2023-04-15T01:22:44;2.20;;;0.00;;
79708;SDS011;69203;48.964;9.118;2023-04-15T01:23:46;2.10;;;0.10;;
79708;SDS011;69203;48.964;9.118;2023-04-15T01:24:50;2.58;;;0.05;;
79708;SDS011;69203;48.964;9.118;2023-04-15T01:25:56;1.95;;;0.10;;
79708;SDS011;69203;48.964;9.118;2023-04-15T01:26:58;1.88;;;0.10;;
79708;SDS011;69203;48.964;9.118;2023-04-15T01:27:58;1.63;;;0.10;;
79708;SDS011;69203;48.964;9.118;2023-04-15T01:29:01;1.50;;;0.00;;
79708;SDS011;69203;48.964;9.118;2023-04-15T01:30:01;2.13;;;0.10;;
79708;SDS011;69203;48.964;9.118;2023-04-15T01:31:05;2.45;;;0.10;;
79708;SDS011;69203;48.964;9.118;2023-04-15T01:32:06;2.35;;;0.03;;
79708;SDS011;69203;48.964;9.118;2023-04-15T01:33:06;1.60;;;0.10;;
79708;SDS011;69203;48.964;9.118;2023-04-15T01:34:07;1.20;;;0.10;;
79708;SDS011;69203;48.964;9.118;2023-04-15T01:35:07;2.00;;;0.10;;
79708;SDS011;69203;48.964;9.118;2023-04-15T01:36:08;2.25;;;0.00;;
79708;SDS011;69203;48.964;9.118;2023-04-15T01:37:10;1.95;;;0.03;;
79708;SDS011;69203;48.964;9.118;2023-04-15T01:38:12;1.03;;;0.10;;
79708;SDS011;69203;48.964;9.118;2023-04-15T01:39:12;2.22;;;0.08;;
79708;SDS011;69203;48.964;9.118;2023-04-15T01:40:13;1.00;;;0.10;;
79708;SDS011;69203;48.964;9.118;2023-04-15T01:41:14;1.50;;;0.10;;
79708;SDS011;69203;48.964;9.118;2023-04-15T01:42:14;1.70;;;0.10;;
79708;SDS011;69203;48.964;9.118;2023-04-15T01:43:15;1.53;;;0.10;;
79708;SDS011;69203;48.964;9.118;2023-04-15T01:44:15;1.10;;;0.10;;
79708;SDS011;69203;48.964;9.118;2023-04-15T01:45:15;1.50;;;0.10;;
79708;SDS011;69203;48.964;9.118;2023-04-15T01:46:16;1.80;;;0.10;;
79708;SDS011;69203;48.964;9.118;2023-04-15T01:47:16;1.50;;;0.10;;
79708;SDS011;69203;48.964;9.118;2023-04-15T01:48:17;1.40;;;0.07;;
79708;SDS011;69203;48.964;9.118;2023-04-15T01:49:17;1.50;;;0.10;;
79708;SDS011;69203;48.964;9.118;2023-04-15T01:50:18;1.30;;;0.10;;
79708;SDS011;69203;48.964;9.118;2023-04-15T01:51:19;1.27;;;0.03;;
79708;SDS011;69203;48.964;9.118;2023-04-15T01:52:20;1.40;;;0.10;;
79708;SDS011;69203;48.964;9.118;2023-04-15T01:53:20;2.03;;;0.10;;
79708;SDS011;69203;48.964;9.118;2023-04-15T01:54:20;1.20;;;0.10;;
79708;SDS011;69203;48.964;9.118;2023-04-15T01:55:21;1.50;;;0.03;;
79708;SDS011;69203;48.964;9.118;2023-04-15T01:56:21;1.73;;;0.10;;
79708;SDS011;69203;48.964;9.118;2023-04-15T01:57:23;1.65;;;0.10;;
79708;SDS011;69203;48.964;9.118;2023-04-15T01:58:24;1.67;;;0.10;;
79708;SDS011;69203;48.964;9.118;2023-04-15T01:59:24;1.70;;;0.10;;
79708;SDS011;69203;48.964;9.118;2023-04-15T02:00:25;1.70;;;0.10;;
79708;SDS011;69203;48.964;9.118;2023-04-15T02:01:26;1.55;;;0.10;;
79708;SDS011;69203;48.964;9.118;2023-04-15T02:02:26;1.40;;;0.10;;
79708;SDS011;69203;48.964;9.118;2023-04-15T02:03:27;1.70;;;0.10;;
79708;SDS011;69203;48.964;9.118;2023-04-15T02:04:28;1.55;;;0.10;;
79708;SDS011;69203;48.964;9.118;2023-04-15T02:05:29;1.23;;;0.10;;
79708;SDS011;69203;48.964;9.118;2023-04-15T02:06:29;1.37;;;0.10;;
79708;SDS011;69203;48.964;9.118;2023-04-15T02:07:29;2.23;;;0.00;;
79708;SDS011;69203;48.964;9.118;2023-04-15T02:08:31;2.05;;;0.08;;
79708;SDS011;69203;48.964;9.118;2023-04-15T02:09:31;2.30;;;0.10;;
79708;SDS011;69203;48.964;9.118;2023-04-15T02:10:32;2.27;;;0.10;;
79708;SDS011;69203;48.964;9.118;2023-04-15T02:11:32;2.37;;;0.10;;
79708;SDS011;69203;48.964;9.118;2023-04-15T02:12:34;2.08;;;0.10;;
79708;SDS011;69203;48.964;9.118;2023-04-15T02:13:34;2.00;;;0.10;;
79708;SDS011;69203;48.964;9.118;2023-04-15T02:14:35;2.03;;;0.10;;
79708;SDS011;69203;48.964;9.118;2023-04-15T02:15:35;2.23;;;0.10;;
79708;SDS011;69203;48.964;9.118;2023-04-15T02:16:36;1.90;;;0.10;;
79708;SDS011;69203;48.964;9.118;2023-04-15T02:17:36;2.30;;;0.10;;
79708;SDS011;69203;48.964;9.118;2023-04-15T02:18:36;2.00;;;0.10;;
79708;SDS011;69203;48.964;9.118;2023-04-15T02:19:37;1.70;;;0.03;;
79708;SDS011;69203;48.964;9.118;2023-04-15T02:20:38;1.55;;;0.10;;
79708;SDS011;69203;48.964;9.118;2023-04-15T02:21:38;1.07;;;0.07;;
79708;SDS011;69203;48.964;9.118;2023-04-15T02:22:39;0.57;;;0.00;;
79708;SDS011;69203;48.964;9.118;2023-04-15T02:26:40;1.25;;;0.10;;
79708;SDS011;69203;48.964;9.118;2023-04-15T02:27:40;1.80;;;0.10;;
79708;SDS011;69203;48.964;9.118;2023-04-15T02:28:41;1.43;;;0.03;;
79708;SDS011;69203;48.964;9.118;2023-04-15T02:29:42;1.90;;;0.10;;
79708;SDS011;69203;48.964;9.118;2023-04-15T02:30:45;0.47;;;0.00;;
79708;SDS011;69203;48.964;9.118;2023-04-15T02:31:47;0.00;;;0.00;;
79708;SDS011;69203;48.964;9.118;2023-04-15T02:32:47;0.40;;;0.10;;
79708;SDS011;69203;48.964;9.118;2023-04-15T02:33:47;2.80;;;2.65;;
79708;SDS011;69203;48.964;9.118;2023-04-15T02:34:48;1.73;;;0.40;;
79708;SDS011;69203;48.964;9.118;2023-04-15T02:35:48;2.73;;;0.10;;
79708;SDS011;69203;48.964;9.118;2023-04-15T02:36:49;1.45;;;0.20;;
79708;SDS011;69203;48.964;9.118;2023-04-15T02:37:53;1.10;;;0.90;;
79708;SDS011;69203;48.964;9.118;2023-04-15T02:38:54;2.00;;;0.10;;
79708;SDS011;69203;48.964;9.118;2023-04-15T02:39:54;2.40;;;0.10;;
79708;SDS011;69203;48.964;9.118;2023-04-15T02:40:55;2.15;;;0.10;;
79708;SDS011;69203;48.964;9.118;2023-04-15T02:41:56;1.65;;;0.10;;
79708;SDS011;69203;48.964;9.118;2023-04-15T02:42:58;0.52;;;0.08;;
79708;SDS011;69203;48.964;9.118;2023-04-15T02:43:59;0.93;;;0.00;;
79708;SDS011;69203;48.964;9.118;2023-04-15T02:45:01;1.80;;;0.53;;
79708;SDS011;69203;48.964;9.118;2023-04-15T02:46:01;1.45;;;0.10;;
79708;SDS011;69203;48.964;9.118;2023-04-15T02:47:01;0.93;;;0.20;;
79708;SDS011;69203;48.964;9.118;2023-04-15T02:48:03;1.20;;;0.22;;
79708;SDS011;69203;48.964;9.118;2023-04-15T02:49:05;0.93;;;0.13;;
79708;SDS011;69203;48.964;9.118;2023-04-15T02:50:10;1.95;;;0.10;;
79708;SDS011;69203;48.964;9.118;2023-04-15T02:51:13;2.58;;;0.47;;
79708;SDS011;69203;48.964;9.118;2023-04-15T02:52:14;1.13;;;0.10;;
79708;SDS011;69203;48.964;9.118;2023-04-15T02:53:15;0.50;;;0.30;;
79708;SDS011;69203;48.964;9.118;2023-04-15T02:54:16;0.45;;;0.20;;
79708;SDS011;69203;48.964;9.118;2023-04-15T02:55:18;1.77;;;0.05;;
79708;SDS011;69203;48.964;9.118;2023-04-15T02:56:19;0.40;;;0.20;;
79708;SDS011;69203;48.964;9.118;2023-04-15T02:57:20;2.17;;;0.13;;
79708;SDS011;69203;48.964;9.118;2023-04-15T02:58:21;1.75;;;0.20;;
79708;SDS011;69203;48.964;9.118;2023-04-15T02:59:21;0.63;;;0.00;;
79708;SDS011;69203;48.964;9.118;2023-04-15T03:00:21;0.57;;;0.00;;
79708;SDS011;69203;48.964;9.118;2023-04-15T03:01:24;2.20;;;0.10;;
79708;SDS011;69203;48.964;9.118;2023-04-15T03:02:25;0.30;;;0.10;;
79708;SDS011;69203;48.964;9.118;2023-04-15T03:03:25;1.83;;;0.10;;
79708;SDS011;69203;48.964;9.118;2023-04-15T03:04:27;0.70;;;0.20;;
79708;SDS011;69203;48.964;9.118;2023-04-15T03:05:29;2.38;;;0.10;;
79708;SDS011;69203;48.964;9.118;2023-04-15T03:06:30;2.20;;;0.10;;
79708;SDS011;69203;48.964;9.118;2023-04-15T03:07:31;3.40;;;0.47;;
79708;SDS011;69203;48.964;9.118;2023-04-15T03:08:31;2.97;;;0.10;;
79708;SDS011;69203;48.964;9.118;2023-04-15T03:09:32;2.23;;;0.03;;
79708;SDS011;69203;48.964;9.118;2023-04-15T03:10:32;1.40;;;0.10;;
79708;SDS011;69203;48.964;9.118;2023-04-15T03:12:34;2.28;;;0.55;;
79708;SDS011;69203;48.964;9.118;2023-04-15T03:13:35;2.30;;;0.05;;
79708;SDS011;69203;48.964;9.118;2023-04-15T03:14:35;0.70;;;0.60;;
79708;SDS011;69203;48.964;9.118;2023-04-15T03:15:36;0.00;;;0.00;;
79708;SDS011;69203;48.964;9.118;2023-04-15T03:16:36;0.90;;;0.90;;
79708;SDS011;69203;48.964;9.118;2023-04-15T03:17:37;1.00;;;0.55;;
79708;SDS011;69203;48.964;9.118;2023-04-15T03:18:37;3.13;;;0.10;;
79708;SDS011;69203;48.964;9.118;2023-04-15T03:19:38;1.70;;;0.20;;
79708;SDS011;69203;48.964;9.118;2023-04-15T03:20:38;2.17;;;0.10;;
79708;SDS011;69203;48.964;9.118;2023-04-15T03:21:38;0.83;;;0.00;;
79708;SDS011;69203;48.964;9.118;2023-04-15T03:22:39;2.27;;;0.10;;
79708;SDS011;69203;48.964;9.118;2023-04-15T03:23:39;1.30;;;0.00;;
79708;SDS011;69203;48.964;9.118;2023-04-15T03:24:40;0.67;;;0.00;;
79708;SDS011;69203;48.964;9.118;2023-04-15T03:25:40;0.73;;;0.03;;
79708;SDS011;69203;48.964;9.118;2023-04-15T03:26:41;0.40;;;0.00;;
79708;SDS011;69203;48.964;9.118;2023-04-15T03:27:41;0.60;;;0.00;;
79708;SDS011;69203;48.964;9.118;2023-04-15T03:28:41;0.23;;;0.00;;
79708;SDS011;69203;48.964;9.118;2023-04-15T03:29:42;0.60;;;0.60;;
79708;SDS011;69203;48.964;9.118;2023-04-15T03:33:43;4.78;;;4.50;;
79708;SDS011;69203;48.964;9.118;2023-04-15T03:41:49;0.23;;;0.10;;
79708;SDS011;69203;48.964;9.118;2023-04-15T03:42:50;1.52;;;1.02;;
79708;SDS011;69203;48.964;9.118;2023-04-15T03:43:50;1.40;;;0.20;;
79708;SDS011;69203;48.964;9.118;2023-04-15T03:44:51;1.20;;;0.30;;
79708;SDS011;69203;48.964;9.118;2023-04-15T03:49:52;0.40;;;0.00;;
79708;SDS011;69203;48.964;9.118;2023-04-15T03:50:53;1.10;;;0.10;;
79708;SDS011;69203;48.964;9.118;2023-04-15T03:51:53;0.63;;;0.00;;
79708;SDS011;69203;48.964;9.118;2023-04-15T03:52:53;1.23;;;0.03;;
79708;SDS011;69203;48.964;9.118;2023-04-15T03:53:54;1.27;;;0.10;;
79708;SDS011;69203;48.964;9.118;2023-04-15T03:54:55;1.23;;;0.10;;
79708;SDS011;69203;48.964;9.118;2023-04-15T03:55:55;1.07;;;0.00;;
79708;SDS011;69203;48.964;9.118;2023-04-15T03:56:55;1.20;;;0.10;;
79708;SDS011;69203;48.964;9.118;2023-04-15T03:57:56;1.07;;;0.10;;
79708;SDS011;69203;48.964;9.118;2023-04-15T03:58:57;2.85;;;0.17;;
79708;SDS011;69203;48.964;9.118;2023-04-15T03:59:57;3.17;;;0.10;;
79708;SDS011;69203;48.964;9.118;2023-04-15T04:00:57;3.23;;;0.10;;
79708;SDS011;69203;48.964;9.118;2023-04-15T04:01:58;3.30;;;0.10;;
79708;SDS011;69203;48.964;9.118;2023-04-15T04:02:58;2.93;;;0.10;;
79708;SDS011;69203;48.964;9.118;2023-04-15T04:03:59;3.53;;;0.10;;
79708;SDS011;69203;48.964;9.118;2023-04-15T04:04:59;3.60;;;0.10;;
79708;SDS011;69203;48.964;9.118;2023-04-15T04:05:59;3.30;;;0.10;;
79708;SDS011;69203;48.964;9.118;2023-04-15T04:07:00;3.03;;;0.10;;
79708;SDS011;69203;48.964;9.118;2023-04-15T04:08:00;2.03;;;0.10;;
79708;SDS011;69203;48.964;9.118;2023-04-15T04:10:01;1.53;;;0.00;;
79708;SDS011;69203;48.964;9.118;2023-04-15T04:11:02;1.27;;;0.08;;
79708;SDS011;69203;48.964;9.118;2023-04-15T04:13:03;0.90;;;0.10;;
79708;SDS011;69203;48.964;9.118;2023-04-15T04:14:04;2.27;;;0.10;;
79708;SDS011;69203;48.964;9.118;2023-04-15T04:15:04;1.00;;;0.10;;
79708;SDS011;69203;48.964;9.118;2023-04-15T04:16:05;1.85;;;0.10;;
79708;SDS011;69203;48.964;9.118;2023-04-15T04:35:16;0.60;;;0.10;;
79708;SDS011;69203;48.964;9.118;2023-04-15T04:38:17;0.75;;;0.20;;
79708;SDS011;69203;48.964;9.118;2023-04-15T04:39:18;0.77;;;0.03;;
79708;SDS011;69203;48.964;9.118;2023-04-15T04:40:18;1.03;;;0.00;;
79708;SDS011;69203;48.964;9.118;2023-04-15T04:41:18;0.67;;;0.00;;
79708;SDS011;69203;48.964;9.118;2023-04-15T04:42:19;0.20;;;0.00;;
79708;SDS011;69203;48.964;9.118;2023-04-15T04:43:19;0.30;;;0.00;;
79708;SDS011;69203;48.964;9.118;2023-04-15T04:44:19;0.33;;;0.00;;
79708;SDS011;69203;48.964;9.118;2023-04-15T04:45:21;0.60;;;0.10;;
79708;SDS011;69203;48.964;9.118;2023-04-15T04:46:21;0.63;;;0.00;;
79708;SDS011;69203;48.964;9.118;2023-04-15T04:47:22;0.30;;;0.00;;
79708;SDS011;69203;48.964;9.118;2023-04-15T04:48:23;0.50;;;0.00;;
79708;SDS011;69203;48.964;9.118;2023-04-15T04:49:23;0.17;;;0.00;;
79708;SDS011;69203;48.964;9.118;2023-04-15T04:50:23;0.27;;;0.00;;
79708;SDS011;69203;48.964;9.118;2023-04-15T04:51:24;0.57;;;0.07;;
79708;SDS011;69203;48.964;9.118;2023-04-15T04:52:25;0.63;;;0.10;;
79708;SDS011;69203;48.964;9.118;2023-04-15T04:53:25;0.47;;;0.00;;
79708;SDS011;69203;48.964;9.118;2023-04-15T04:54:27;0.20;;;0.00;;
79708;SDS011;69203;48.964;9.118;2023-04-15T04:55:27;0.10;;;0.00;;
79708;SDS011;69203;48.964;9.118;2023-04-15T04:56:27;0.10;;;0.00;;
79708;SDS011;69203;48.964;9.118;2023-04-15T04:57:28;0.10;;;0.10;;
79708;SDS011;69203;48.964;9.118;2023-04-15T04:59:28;1.38;;;0.10;;
79708;SDS011;69203;48.964;9.118;2023-04-15T05:00:29;4.27;;;0.10;;
79708;SDS011;69203;48.964;9.118;2023-04-15T05:01:29;2.00;;;0.17;;
79708;SDS011;69203;48.964;9.118;2023-04-15T05:02:29;0.83;;;0.00;;
79708;SDS011;69203;48.964;9.118;2023-04-15T05:03:31;0.80;;;0.00;;
79708;SDS011;69203;48.964;9.118;2023-04-15T05:04:31;1.20;;;0.10;;
79708;SDS011;69203;48.964;9.118;2023-04-15T05:05:32;1.73;;;0.10;;
79708;SDS011;69203;48.964;9.118;2023-04-15T05:10:37;0.57;;;0.00;;
79708;SDS011;69203;48.964;9.118;2023-04-15T05:11:37;0.20;;;0.00;;
79708;SDS011;69203;48.964;9.118;2023-04-15T05:12:38;0.77;;;0.00;;
79708;SDS011;69203;48.964;9.118;2023-04-15T05:13:38;2.00;;;0.07;;
79708;SDS011;69203;48.964;9.118;2023-04-15T05:14:38;2.73;;;0.10;;
79708;SDS011;69203;48.964;9.118;2023-04-15T05:15:40;3.83;;;0.10;;
79708;SDS011;69203;48.964;9.118;2023-04-15T05:16:42;4.35;;;0.10;;
79708;SDS011;69203;48.964;9.118;2023-04-15T05:17:42;4.87;;;0.10;;
79708;SDS011;69203;48.964;9.118;2023-04-15T05:18:44;4.38;;;0.10;;
79708;SDS011;69203;48.964;9.118;2023-04-15T05:19:45;4.85;;;0.10;;
79708;SDS011;69203;48.964;9.118;2023-04-15T05:20:45;3.93;;;0.10;;
79708;SDS011;69203;48.964;9.118;2023-04-15T05:21:46;3.80;;;0.10;;
79708;SDS011;69203;48.964;9.118;2023-04-15T05:22:48;3.65;;;0.10;;
79708;SDS011;69203;48.964;9.118;2023-04-15T05:23:48;3.60;;;0.10;;
79708;SDS011;69203;48.964;9.118;2023-04-15T05:24:48;3.53;;;0.10;;
79708;SDS011;69203;48.964;9.118;2023-04-15T05:25:49;3.30;;;0.10;;
79708;SDS011;69203;48.964;9.118;2023-04-15T05:26:49;3.70;;;0.10;;
79708;SDS011;69203;48.964;9.118;2023-04-15T05:27:50;4.30;;;0.10;;
79708;SDS011;69203;48.964;9.118;2023-04-15T05:28:50;4.03;;;0.10;;
79708;SDS011;69203;48.964;9.118;2023-04-15T05:29:51;3.87;;;0.10;;
79708;SDS011;69203;48.964;9.118;2023-04-15T05:30:51;3.70;;;0.10;;
79708;SDS011;69203;48.964;9.118;2023-04-15T05:31:51;3.43;;;0.10;;
79708;SDS011;69203;48.964;9.118;2023-04-15T05:32:52;3.80;;;0.10;;
79708;SDS011;69203;48.964;9.118;2023-04-15T05:33:53;3.20;;;0.10;;
79708;SDS011;69203;48.964;9.118;2023-04-15T05:34:54;3.30;;;0.10;;
79708;SDS011;69203;48.964;9.118;2023-04-15T05:35:54;2.83;;;0.10;;
79708;SDS011;69203;48.964;9.118;2023-04-15T05:36:55;3.30;;;0.10;;
79708;SDS011;69203;48.964;9.118;2023-04-15T05:37:55;3.40;;;0.10;;
79708;SDS011;69203;48.964;9.118;2023-04-15T05:38:57;3.35;;;0.10;;
79708;SDS011;69203;48.964;9.118;2023-04-15T05:39:58;2.80;;;0.10;;
79708;SDS011;69203;48.964;9.118;2023-04-15T05:40:58;3.07;;;0.10;;
79708;SDS011;69203;48.964;9.118;2023-04-15T05:42:00;2.58;;;0.10;;
79708;SDS011;69203;48.964;9.118;2023-04-15T05:43:01;3.00;;;0.10;;
79708;SDS011;69203;48.964;9.118;2023-04-15T05:44:01;2.60;;;0.10;;
79708;SDS011;69203;48.964;9.118;2023-04-15T05:45:02;2.70;;;0.10;;
79708;SDS011;69203;48.964;9.118;2023-04-15T05:46:04;2.78;;;0.05;;
79708;SDS011;69203;48.964;9.118;2023-04-15T05:47:04;2.50;;;0.10;;
79708;SDS011;69203;48.964;9.118;2023-04-15T05:48:06;2.25;;;0.10;;
79708;SDS011;69203;48.964;9.118;2023-04-15T05:49:07;2.47;;;0.10;;
79708;SDS011;69203;48.964;9.118;2023-04-15T05:50:07;2.47;;;0.10;;
79708;SDS011;69203;48.964;9.118;2023-04-15T05:51:08;2.37;;;0.10;;
79708;SDS011;69203;48.964;9.118;2023-04-15T05:52:08;2.50;;;0.10;;
79708;SDS011;69203;48.964;9.118;2023-04-15T05:53:10;2.45;;;0.10;;
79708;SDS011;69203;48.964;9.118;2023-04-15T05:54:11;2.77;;;0.10;;
79708;SDS011;69203;48.964;9.118;2023-04-15T05:55:11;2.73;;;0.10;;
79708;SDS011;69203;48.964;9.118;2023-04-15T05:56:11;2.20;;;0.10;;
79708;SDS011;69203;48.964;9.118;2023-04-15T05:57:12;2.23;;;0.10;;
79708;SDS011;69203;48.964;9.118;2023-04-15T05:58:13;2.33;;;0.10;;
79708;SDS011;69203;48.964;9.118;2023-04-15T05:59:13;3.23;;;0.77;;
79708;SDS011;69203;48.964;9.118;2023-04-15T06:00:14;2.30;;;0.10;;
79708;SDS011;69203;48.964;9.118;2023-04-15T06:01:14;2.77;;;0.10;;
79708;SDS011;69203;48.964;9.118;2023-04-15T06:02:15;1.90;;;0.10;;
79708;SDS011;69203;48.964;9.118;2023-04-15T06:03:15;2.70;;;0.10;;
79708;SDS011;69203;48.964;9.118;2023-04-15T06:04:16;2.57;;;0.10;;
79708;SDS011;69203;48.964;9.118;2023-04-15T06:05:17;2.17;;;0.10;;
79708;SDS011;69203;48.964;9.118;2023-04-15T06:06:18;2.30;;;0.10;;
79708;SDS011;69203;48.964;9.118;2023-04-15T06:07:19;2.53;;;0.13;;
79708;SDS011;69203;48.964;9.118;2023-04-15T06:08:20;2.63;;;0.10;;
79708;SDS011;69203;48.964;9.118;2023-04-15T06:09:20;2.37;;;0.10;;
79708;SDS011;69203;48.964;9.118;2023-04-15T06:10:20;2.60;;;0.10;;
79708;SDS011;69203;48.964;9.118;2023-04-15T06:11:22;2.63;;;0.10;;
79708;SDS011;69203;48.964;9.118;2023-04-15T06:12:23;2.60;;;0.10;;
79708;SDS011;69203;48.964;9.118;2023-04-15T06:13:24;2.53;;;0.10;;
79708;SDS011;69203;48.964;9.118;2023-04-15T06:14:24;3.23;;;0.20;;
79708;SDS011;69203;48.964;9.118;2023-04-15T06:15:25;2.83;;;0.10;;
79708;SDS011;69203;48.964;9.118;2023-04-15T06:16:25;2.87;;;0.13;;
79708;SDS011;69203;48.964;9.118;2023-04-15T06:17:26;2.90;;;0.10;;
79708;SDS011;69203;48.964;9.118;2023-04-15T06:18:26;2.93;;;0.10;;
79708;SDS011;69203;48.964;9.118;2023-04-15T06:19:27;2.73;;;0.13;;
79708;SDS011;69203;48.964;9.118;2023-04-15T06:20:27;2.97;;;0.10;;
79708;SDS011;69203;48.964;9.118;2023-04-15T06:21:28;3.20;;;0.10;;
79708;SDS011;69203;48.964;9.118;2023-04-15T06:22:30;2.97;;;0.10;;
79708;SDS011;69203;48.964;9.118;2023-04-15T06:23:30;2.93;;;0.10;;
79708;SDS011;69203;48.964;9.118;2023-04-15T06:24:34;3.05;;;0.10;;
79708;SDS011;69203;48.964;9.118;2023-04-15T06:25:36;2.97;;;0.10;;
79708;SDS011;69203;48.964;9.118;2023-04-15T06:26:36;3.13;;;0.10;;
79708;SDS011;69203;48.964;9.118;2023-04-15T06:27:37;3.17;;;0.10;;
79708;SDS011;69203;48.964;9.118;2023-04-15T06:28:37;3.20;;;0.10;;
79708;SDS011;69203;48.964;9.118;2023-04-15T06:29:38;3.40;;;0.10;;
79708;SDS011;69203;48.964;9.118;2023-04-15T06:30:38;3.30;;;0.10;;
79708;SDS011;69203;48.964;9.118;2023-04-15T06:31:39;3.50;;;0.10;;
79708;SDS011;69203;48.964;9.118;2023-04-15T06:32:39;3.47;;;0.20;;
79708;SDS011;69203;48.964;9.118;2023-04-15T06:33:39;3.70;;;0.20;;
79708;SDS011;69203;48.964;9.118;2023-04-15T06:34:40;3.30;;;0.10;;
79708;SDS011;69203;48.964;9.118;2023-04-15T06:35:40;3.30;;;0.10;;
79708;SDS011;69203;48.964;9.118;2023-04-15T06:36:41;3.10;;;0.20;;
79708;SDS011;69203;48.964;9.118;2023-04-15T06:37:42;3.45;;;0.15;;
79708;SDS011;69203;48.964;9.118;2023-04-15T06:38:43;3.33;;;0.10;;
79708;SDS011;69203;48.964;9.118;2023-04-15T06:39:43;3.53;;;0.20;;
79708;SDS011;69203;48.964;9.118;2023-04-15T06:40:43;3.97;;;0.10;;
79708;SDS011;69203;48.964;9.118;2023-04-15T06:41:45;3.25;;;0.10;;
79708;SDS011;69203;48.964;9.118;2023-04-15T06:42:45;3.20;;;0.13;;
79708;SDS011;69203;48.964;9.118;2023-04-15T06:43:46;3.27;;;0.17;;
79708;SDS011;69203;48.964;9.118;2023-04-15T06:44:46;3.27;;;0.17;;
79708;SDS011;69203;48.964;9.118;2023-04-15T06:45:47;3.00;;;0.10;;
79708;SDS011;69203;48.964;9.118;2023-04-15T06:46:47;3.03;;;0.13;;
79708;SDS011;69203;48.964;9.118;2023-04-15T06:47:47;3.13;;;0.10;;
79708;SDS011;69203;48.964;9.118;2023-04-15T06:48:48;3.20;;;0.10;;
79708;SDS011;69203;48.964;9.118;2023-04-15T06:49:48;3.00;;;0.27;;
79708;SDS011;69203;48.964;9.118;2023-04-15T06:50:48;3.60;;;0.10;;
79708;SDS011;69203;48.964;9.118;2023-04-15T06:51:49;3.50;;;0.10;;
79708;SDS011;69203;48.964;9.118;2023-04-15T06:52:50;2.47;;;0.10;;